sensor_id;sensor_type;location;lat;lon;timestamp;pressure;altitude;pressure_sealevel;temperature;humidity
79589;BME280;69067;51.930;4.492;2023-07-30T00:02:20;100839.34;;;25.59;44.66
79589;BME280;69067;51.930;4.492;2023-07-30T00:04:47;100841.22;;;25.65;44.54
79589;BME280;69067;51.930;4.492;2023-07-30T00:07:13;100834.50;;;25.61;44.33
79589;BME280;69067;51.930;4.492;2023-07-30T00:09:39;100844.38;;;25.62;44.14
79589;BME280;69067;51.930;4.492;2023-07-30T00:12:08;100849.81;;;25.62;43.95
79589;BME280;69067;51.930;4.492;2023-07-30T00:14:35;100837.69;;;25.58;44.37
79589;BME280;69067;51.930;4.492;2023-07-30T00:17:01;100836.19;;;25.62;44.57
79589;BME280;69067;51.930;4.492;2023-07-30T00:19:27;100839.06;;;25.67;44.37
79589;BME280;69067;51.930;4.492;2023-07-30T00:21:53;100836.63;;;25.59;44.93
79589;BME280;69067;51.930;4.492;2023-07-30T00:24:18;100841.25;;;25.58;44.73
79589;BME280;69067;51.930;4.492;2023-07-30T00:26:44;100850.88;;;25.61;44.72
79589;BME280;69067;51.930;4.492;2023-07-30T00:29:10;100839.97;;;25.61;44.70
79589;BME280;69067;51.930;4.492;2023-07-30T00:31:36;100855.06;;;25.63;44.62
79589;BME280;69067;51.930;4.492;2023-07-30T00:34:01;100847.31;;;25.60;44.91
79589;BME280;69067;51.930;4.492;2023-07-30T00:36:27;100842.28;;;25.57;44.36
79589;BME280;69067;51.930;4.492;2023-07-30T00:38:53;100846.28;;;25.55;44.86
79589;BME280;69067;51.930;4.492;2023-07-30T00:41:18;100842.72;;;25.54;44.41
79589;BME280;69067;51.930;4.492;2023-07-30T00:43:44;100847.53;;;25.59;45.28
79589;BME280;69067;51.930;4.492;2023-07-30T00:46:11;100863.03;;;25.65;45.29
79589;BME280;69067;51.930;4.492;2023-07-30T00:48:37;100865.50;;;25.66;44.45
79589;BME280;69067;51.930;4.492;2023-07-30T00:51:04;100852.56;;;25.62;44.69
79589;BME280;69067;51.930;4.492;2023-07-30T00:53:30;100854.66;;;25.60;44.81
79589;BME280;69067;51.930;4.492;2023-07-30T00:55:57;100856.91;;;25.69;44.98
79589;BME280;69067;51.930;4.492;2023-07-30T00:58:23;100864.25;;;25.69;44.81
79589;BME280;69067;51.930;4.492;2023-07-30T01:00:51;100860.09;;;25.60;44.73
79589;BME280;69067;51.930;4.492;2023-07-30T01:03:18;100863.25;;;25.57;45.41
79589;BME280;69067;51.930;4.492;2023-07-30T01:05:45;100863.47;;;25.55;45.29
79589;BME280;69067;51.930;4.492;2023-07-30T01:08:11;100886.53;;;25.59;45.31
79589;BME280;69067;51.930;4.492;2023-07-30T01:10:38;100871.00;;;25.60;45.48
79589;BME280;69067;51.930;4.492;2023-07-30T01:13:09;100868.53;;;25.58;44.91
79589;BME280;69067;51.930;4.492;2023-07-30T01:15:36;100867.69;;;25.58;45.04
79589;BME280;69067;51.930;4.492;2023-07-30T01:18:03;100871.88;;;25.54;44.97
79589;BME280;69067;51.930;4.492;2023-07-30T01:20:32;100876.06;;;25.56;45.11
79589;BME280;69067;51.930;4.492;2023-07-30T01:23:01;100862.63;;;25.55;45.03
79589;BME280;69067;51.930;4.492;2023-07-30T01:25:35;100865.97;;;25.57;44.85
79589;BME280;69067;51.930;4.492;2023-07-30T01:28:05;100872.91;;;25.59;45.17
79589;BME280;69067;51.930;4.492;2023-07-30T01:30:41;100857.81;;;25.57;45.45
79589;BME280;69067;51.930;4.492;2023-07-30T01:33:10;100865.97;;;25.57;45.73
79589;BME280;69067;51.930;4.492;2023-07-30T01:35:37;100858.84;;;25.56;45.50
79589;BME280;69067;51.930;4.492;2023-07-30T01:38:04;100857.38;;;25.60;44.98
79589;BME280;69067;51.930;4.492;2023-07-30T01:40:32;100867.69;;;25.58;45.27
79589;BME280;69067;51.930;4.492;2023-07-30T01:42:58;100868.91;;;25.62;46.07
79589;BME280;69067;51.930;4.492;2023-07-30T01:45:24;100874.16;;;25.63;45.38
79589;BME280;69067;51.930;4.492;2023-07-30T01:47:50;100868.53;;;25.58;45.79
79589;BME280;69067;51.930;4.492;2023-07-30T01:50:16;100867.19;;;25.67;45.53
79589;BME280;69067;51.930;4.492;2023-07-30T01:52:43;100866.19;;;25.62;45.25
79589;BME280;69067;51.930;4.492;2023-07-30T01:55:09;100879.28;;;25.78;45.13
79589;BME280;69067;51.930;4.492;2023-07-30T01:57:35;100883.53;;;25.67;45.51
79589;BME280;69067;51.930;4.492;2023-07-30T02:00:00;100888.53;;;25.77;45.31
79589;BME280;69067;51.930;4.492;2023-07-30T02:02:26;100887.72;;;25.70;45.94
79589;BME280;69067;51.930;4.492;2023-07-30T02:04:52;100878.94;;;25.68;44.60
79589;BME280;69067;51.930;4.492;2023-07-30T02:07:17;100883.50;;;25.74;45.23
79589;BME280;69067;51.930;4.492;2023-07-30T02:09:43;100876.78;;;25.76;45.83
79589;BME280;69067;51.930;4.492;2023-07-30T02:12:09;100883.28;;;25.75;45.42
79589;BME280;69067;51.930;4.492;2023-07-30T02:14:35;100879.56;;;25.70;44.93
79589;BME280;69067;51.930;4.492;2023-07-30T02:17:00;100884.53;;;25.73;45.95
79589;BME280;69067;51.930;4.492;2023-07-30T02:19:26;100877.94;;;25.87;45.30
79589;BME280;69067;51.930;4.492;2023-07-30T02:21:52;100873.84;;;25.78;45.52
79589;BME280;69067;51.930;4.492;2023-07-30T02:24:18;100860.50;;;25.63;45.92
79589;BME280;69067;51.930;4.492;2023-07-30T02:26:43;100873.03;;;25.71;45.44
79589;BME280;69067;51.930;4.492;2023-07-30T02:29:09;100863.63;;;25.67;45.86
79589;BME280;69067;51.930;4.492;2023-07-30T02:31:35;100853.34;;;25.69;45.17
79589;BME280;69067;51.930;4.492;2023-07-30T02:34:01;100862.19;;;25.64;45.63
79589;BME280;69067;51.930;4.492;2023-07-30T02:36:26;100868.66;;;25.70;45.91
79589;BME280;69067;51.930;4.492;2023-07-30T02:38:52;100865.91;;;25.70;45.28
79589;BME280;69067;51.930;4.492;2023-07-30T02:41:18;100858.00;;;25.62;45.99
79589;BME280;69067;51.930;4.492;2023-07-30T02:43:43;100866.81;;;25.64;45.79
79589;BME280;69067;51.930;4.492;2023-07-30T02:46:09;100859.88;;;25.61;45.75
79589;BME280;69067;51.930;4.492;2023-07-30T02:48:35;100860.69;;;25.68;46.02
79589;BME280;69067;51.930;4.492;2023-07-30T02:51:01;100849.16;;;25.66;45.75
79589;BME280;69067;51.930;4.492;2023-07-30T02:53:26;100860.88;;;25.67;45.65
79589;BME280;69067;51.930;4.492;2023-07-30T02:55:53;100852.97;;;25.65;46.29
79589;BME280;69067;51.930;4.492;2023-07-30T02:58:18;100860.06;;;25.66;46.32
79589;BME280;69067;51.930;4.492;2023-07-30T03:00:44;100859.41;;;25.71;46.12
79589;BME280;69067;51.930;4.492;2023-07-30T03:03:10;100858.78;;;25.69;46.65
79589;BME280;69067;51.930;4.492;2023-07-30T03:05:36;100859.19;;;25.72;46.50
79589;BME280;69067;51.930;4.492;2023-07-30T03:08:01;100845.00;;;25.64;45.90
79589;BME280;69067;51.930;4.492;2023-07-30T03:10:27;100857.94;;;25.68;46.27
79589;BME280;69067;51.930;4.492;2023-07-30T03:12:53;100853.50;;;25.74;46.12
79589;BME280;69067;51.930;4.492;2023-07-30T03:15:18;100863.41;;;25.68;46.07
79589;BME280;69067;51.930;4.492;2023-07-30T03:17:44;100850.44;;;25.64;46.16
79589;BME280;69067;51.930;4.492;2023-07-30T03:20:10;100857.72;;;25.70;45.77
79589;BME280;69067;51.930;4.492;2023-07-30T03:22:36;100861.09;;;25.72;46.20
79589;BME280;69067;51.930;4.492;2023-07-30T03:25:02;100854.78;;;25.71;46.42
79589;BME280;69067;51.930;4.492;2023-07-30T03:27:28;100868.03;;;25.68;46.72
79589;BME280;69067;51.930;4.492;2023-07-30T03:29:53;100863.81;;;25.72;46.98
79589;BME280;69067;51.930;4.492;2023-07-30T03:32:20;100868.19;;;25.73;46.69
79589;BME280;69067;51.930;4.492;2023-07-30T03:34:46;100860.13;;;25.84;46.65
79589;BME280;69067;51.930;4.492;2023-07-30T03:37:12;100873.22;;;25.76;46.08
79589;BME280;69067;51.930;4.492;2023-07-30T03:39:37;100869.22;;;25.78;46.15
79589;BME280;69067;51.930;4.492;2023-07-30T03:42:03;100862.47;;;25.81;46.07
79589;BME280;69067;51.930;4.492;2023-07-30T03:44:29;100866.69;;;25.77;46.91
79589;BME280;69067;51.930;4.492;2023-07-30T03:46:55;100867.81;;;25.69;46.21
79589;BME280;69067;51.930;4.492;2023-07-30T03:49:21;100859.19;;;25.72;46.51
79589;BME280;69067;51.930;4.492;2023-07-30T03:51:47;100867.75;;;25.76;46.20
79589;BME280;69067;51.930;4.492;2023-07-30T03:54:13;100872.22;;;25.70;47.03
79589;BME280;69067;51.930;4.492;2023-07-30T03:56:38;100875.16;;;25.69;46.32
79589;BME280;69067;51.930;4.492;2023-07-30T03:59:04;100871.75;;;25.73;46.28
79589;BME280;69067;51.930;4.492;2023-07-30T04:01:30;100872.31;;;25.82;46.40
79589;BME280;69067;51.930;4.492;2023-07-30T04:03:56;100870.47;;;25.76;46.24
79589;BME280;69067;51.930;4.492;2023-07-30T04:06:22;100876.00;;;25.69;46.73
79589;BME280;69067;51.930;4.492;2023-07-30T04:08:47;100881.19;;;25.77;47.06
79589;BME280;69067;51.930;4.492;2023-07-30T04:11:13;100880.13;;;25.78;46.67
79589;BME280;69067;51.930;4.492;2023-07-30T04:13:39;100880.13;;;25.78;46.38
79589;BME280;69067;51.930;4.492;2023-07-30T04:16:06;100878.88;;;25.74;46.40
79589;BME280;69067;51.930;4.492;2023-07-30T04:18:32;100881.19;;;25.77;46.71
79589;BME280;69067;51.930;4.492;2023-07-30T04:20:57;100881.81;;;25.73;46.86
79589;BME280;69067;51.930;4.492;2023-07-30T04:23:23;100883.06;;;25.77;46.41
79589;BME280;69067;51.930;4.492;2023-07-30T04:25:49;100874.09;;;25.70;46.67
79589;BME280;69067;51.930;4.492;2023-07-30T04:28:16;100868.03;;;25.68;46.85
79589;BME280;69067;51.930;4.492;2023-07-30T04:30:42;100883.50;;;25.74;46.99
79589;BME280;69067;51.930;4.492;2023-07-30T04:33:07;100870.47;;;25.76;46.71
79589;BME280;69067;51.930;4.492;2023-07-30T04:35:33;100883.44;;;25.80;46.56
79589;BME280;69067;51.930;4.492;2023-07-30T04:37:59;100887.13;;;25.68;46.54
79589;BME280;69067;51.930;4.492;2023-07-30T04:40:25;100883.13;;;25.70;46.83
79589;BME280;69067;51.930;4.492;2023-07-30T04:42:50;100888.13;;;25.73;46.62
79589;BME280;69067;51.930;4.492;2023-07-30T04:45:16;100883.50;;;25.74;46.49
79589;BME280;69067;51.930;4.492;2023-07-30T04:47:42;100886.75;;;25.89;45.86
79589;BME280;69067;51.930;4.492;2023-07-30T04:50:08;100883.97;;;25.71;46.46
79589;BME280;69067;51.930;4.492;2023-07-30T04:52:34;100896.28;;;25.73;46.60
79589;BME280;69067;51.930;4.492;2023-07-30T04:54:59;100903.47;;;25.68;46.17
79589;BME280;69067;51.930;4.492;2023-07-30T04:57:25;100898.59;;;25.76;46.43
79589;BME280;69067;51.930;4.492;2023-07-30T04:59:51;100897.38;;;25.72;46.35
79589;BME280;69067;51.930;4.492;2023-07-30T05:02:17;100903.03;;;25.71;46.89
79589;BME280;69067;51.930;4.492;2023-07-30T05:04:42;100897.13;;;25.74;46.85
79589;BME280;69067;51.930;4.492;2023-07-30T05:07:09;100890.69;;;25.68;46.90
79589;BME280;69067;51.930;4.492;2023-07-30T05:09:35;100889.84;;;25.68;46.56
79589;BME280;69067;51.930;4.492;2023-07-30T05:12:01;100895.75;;;25.65;46.27
79589;BME280;69067;51.930;4.492;2023-07-30T05:14:27;100897.19;;;25.67;46.46
79589;BME280;69067;51.930;4.492;2023-07-30T05:16:53;100892.19;;;25.64;46.81
79589;BME280;69067;51.930;4.492;2023-07-30T05:19:18;100890.47;;;25.70;46.12
79589;BME280;69067;51.930;4.492;2023-07-30T05:21:44;100909.78;;;25.68;47.06
79589;BME280;69067;51.930;4.492;2023-07-30T05:24:10;100900.38;;;25.64;46.45
79589;BME280;69067;51.930;4.492;2023-07-30T05:26:36;100901.22;;;25.65;47.21
79589;BME280;69067;51.930;4.492;2023-07-30T05:29:01;100909.34;;;25.71;47.04
79589;BME280;69067;51.930;4.492;2023-07-30T05:31:28;100907.25;;;25.67;46.82
79589;BME280;69067;51.930;4.492;2023-07-30T05:33:54;100902.47;;;25.62;47.44
79589;BME280;69067;51.930;4.492;2023-07-30T05:36:20;100905.78;;;25.71;46.65
79589;BME280;69067;51.930;4.492;2023-07-30T05:38:46;100907.25;;;25.67;46.75
79589;BME280;69067;51.930;4.492;2023-07-30T05:41:12;100910.59;;;25.69;47.19
79589;BME280;69067;51.930;4.492;2023-07-30T05:43:37;100906.56;;;25.78;46.08
79589;BME280;69067;51.930;4.492;2023-07-30T05:46:03;100905.81;;;25.64;46.48
79589;BME280;69067;51.930;4.492;2023-07-30T05:48:29;100886.97;;;25.56;46.21
79589;BME280;69067;51.930;4.492;2023-07-30T05:50:55;100900.78;;;25.61;46.91
79589;BME280;69067;51.930;4.492;2023-07-30T05:53:21;100895.56;;;25.60;46.58
79589;BME280;69067;51.930;4.492;2023-07-30T05:55:46;100894.06;;;25.64;46.89
79589;BME280;69067;51.930;4.492;2023-07-30T05:58:12;100905.16;;;25.69;46.56
79589;BME280;69067;51.930;4.492;2023-07-30T06:00:38;100894.06;;;25.64;46.40
79589;BME280;69067;51.930;4.492;2023-07-30T06:03:04;100900.38;;;25.64;46.86
79589;BME280;69067;51.930;4.492;2023-07-30T06:05:31;100890.63;;;25.75;46.62
79589;BME280;69067;51.930;4.492;2023-07-30T06:07:57;100906.78;;;25.76;46.46
79589;BME280;69067;51.930;4.492;2023-07-30T06:10:23;100903.03;;;25.71;46.32
79589;BME280;69067;51.930;4.492;2023-07-30T06:12:48;100905.16;;;25.69;47.02
79589;BME280;69067;51.930;4.492;2023-07-30T06:15:14;100891.94;;;25.66;46.53
79589;BME280;69067;51.930;4.492;2023-07-30T06:17:40;100899.44;;;25.77;46.20
79589;BME280;69067;51.930;4.492;2023-07-30T06:20:06;100904.25;;;25.75;46.46
79589;BME280;69067;51.930;4.492;2023-07-30T06:22:32;100907.03;;;25.68;46.78
79589;BME280;69067;51.930;4.492;2023-07-30T06:24:58;100906.66;;;25.65;46.48
79589;BME280;69067;51.930;4.492;2023-07-30T06:27:25;100907.50;;;25.65;46.69
79589;BME280;69067;51.930;4.492;2023-07-30T06:29:51;100910.03;;;25.60;46.99
79589;BME280;69067;51.930;4.492;2023-07-30T06:32:16;100910.03;;;25.60;46.49
79589;BME280;69067;51.930;4.492;2023-07-30T06:34:42;100912.16;;;25.58;47.04
79589;BME280;69067;51.930;4.492;2023-07-30T06:37:08;100903.31;;;25.56;46.76
79589;BME280;69067;51.930;4.492;2023-07-30T06:39:34;100911.31;;;25.58;46.99
79589;BME280;69067;51.930;4.492;2023-07-30T06:42:02;100919.69;;;25.56;46.69
79589;BME280;69067;51.930;4.492;2023-07-30T06:44:27;100916.53;;;25.59;47.01
79589;BME280;69067;51.930;4.492;2023-07-30T06:46:53;100924.72;;;25.59;46.20
79589;BME280;69067;51.930;4.492;2023-07-30T06:49:19;100919.25;;;25.59;46.24
79589;BME280;69067;51.930;4.492;2023-07-30T06:51:45;100929.13;;;25.60;46.21
79589;BME280;69067;51.930;4.492;2023-07-30T06:54:11;100920.13;;;25.53;46.29
79589;BME280;69067;51.930;4.492;2023-07-30T06:56:36;100907.94;;;25.56;46.68
79589;BME280;69067;51.930;4.492;2023-07-30T06:59:02;100915.06;;;25.57;45.84
79589;BME280;69067;51.930;4.492;2023-07-30T07:01:28;100925.97;;;25.57;46.50
79589;BME280;69067;51.930;4.492;2023-07-30T07:03:55;100929.53;;;25.57;46.75
79589;BME280;69067;51.930;4.492;2023-07-30T07:06:20;100925.56;;;25.60;46.70
79589;BME280;69067;51.930;4.492;2023-07-30T07:08:46;100916.78;;;25.58;46.66
79589;BME280;69067;51.930;4.492;2023-07-30T07:11:12;100913.41;;;25.56;46.35
79589;BME280;69067;51.930;4.492;2023-07-30T07:13:38;100923.88;;;25.59;46.78
79589;BME280;69067;51.930;4.492;2023-07-30T07:16:03;100919.28;;;25.52;46.31
79589;BME280;69067;51.930;4.492;2023-07-30T07:18:29;100912.78;;;25.54;45.95
79589;BME280;69067;51.930;4.492;2023-07-30T07:20:55;100915.47;;;25.60;46.11
79589;BME280;69067;51.930;4.492;2023-07-30T07:23:21;100924.72;;;25.59;46.04
79589;BME280;69067;51.930;4.492;2023-07-30T07:25:46;100921.38;;;25.57;46.26
79589;BME280;69067;51.930;4.492;2023-07-30T07:28:12;100928.28;;;25.60;46.16
79589;BME280;69067;51.930;4.492;2023-07-30T07:30:38;100934.16;;;25.57;46.47
79589;BME280;69067;51.930;4.492;2023-07-30T07:33:04;100935.41;;;25.54;45.89
79589;BME280;69067;51.930;4.492;2023-07-30T07:35:31;100950.94;;;25.54;45.96
79589;BME280;69067;51.930;4.492;2023-07-30T07:37:57;100948.66;;;25.50;46.78
79589;BME280;69067;51.930;4.492;2023-07-30T07:40:23;100945.28;;;25.55;46.37
79589;BME280;69067;51.930;4.492;2023-07-30T07:42:48;100949.91;;;25.55;46.39
79589;BME280;69067;51.930;4.492;2023-07-30T07:45:14;100951.16;;;25.52;46.33
79589;BME280;69067;51.930;4.492;2023-07-30T07:47:40;100957.44;;;25.52;46.42
79589;BME280;69067;51.930;4.492;2023-07-30T07:50:06;100960.59;;;25.56;46.36
79589;BME280;69067;51.930;4.492;2023-07-30T07:52:32;100961.69;;;25.48;46.02
79589;BME280;69067;51.930;4.492;2023-07-30T07:54:58;100957.03;;;25.56;46.75
79589;BME280;69067;51.930;4.492;2023-07-30T07:57:24;100973.19;;;25.57;46.26
79589;BME280;69067;51.930;4.492;2023-07-30T07:59:50;100969.19;;;25.53;46.15
79589;BME280;69067;51.930;4.492;2023-07-30T08:02:16;100969.19;;;25.60;45.91
79589;BME280;69067;51.930;4.492;2023-07-30T08:04:42;100961.00;;;25.53;46.33
79589;BME280;69067;51.930;4.492;2023-07-30T08:07:07;100978.00;;;25.55;46.13
79589;BME280;69067;51.930;4.492;2023-07-30T08:09:33;100967.75;;;25.50;45.98
79589;BME280;69067;51.930;4.492;2023-07-30T08:11:59;100965.22;;;25.56;46.20
79589;BME280;69067;51.930;4.492;2023-07-30T08:14:26;100965.88;;;25.58;46.01
79589;BME280;69067;51.930;4.492;2023-07-30T08:16:51;100974.44;;;25.55;45.84
79589;BME280;69067;51.930;4.492;2023-07-30T08:19:17;100969.81;;;25.55;45.70
79589;BME280;69067;51.930;4.492;2023-07-30T08:21:43;100966.72;;;25.52;45.94
79589;BME280;69067;51.930;4.492;2023-07-30T08:24:09;100968.34;;;25.52;46.40
79589;BME280;69067;51.930;4.492;2023-07-30T08:26:34;100960.41;;;25.51;46.24
79589;BME280;69067;51.930;4.492;2023-07-30T08:29:00;100984.28;;;25.56;45.88
79589;BME280;69067;51.930;4.492;2023-07-30T08:31:26;100977.38;;;25.60;45.99
79589;BME280;69067;51.930;4.492;2023-07-30T08:33:52;100976.13;;;25.56;45.66
79589;BME280;69067;51.930;4.492;2023-07-30T08:36:17;100969.59;;;25.57;46.02
79589;BME280;69067;51.930;4.492;2023-07-30T08:38:43;100979.25;;;25.52;45.88
79589;BME280;69067;51.930;4.492;2023-07-30T08:41:09;100974.56;;;25.73;45.52
79589;BME280;69067;51.930;4.492;2023-07-30T08:43:35;100967.00;;;25.75;44.87
79589;BME280;69067;51.930;4.492;2023-07-30T08:46:01;100964.06;;;25.76;44.97
79589;BME280;69067;51.930;4.492;2023-07-30T08:48:27;100946.47;;;25.72;44.54
79589;BME280;69067;51.930;4.492;2023-07-30T08:50:56;100966.56;;;25.78;44.22
79589;BME280;69067;51.930;4.492;2023-07-30T08:53:26;100972.06;;;25.71;43.66
79589;BME280;69067;51.930;4.492;2023-07-30T08:55:55;100969.09;;;25.73;44.40
79589;BME280;69067;51.930;4.492;2023-07-30T08:58:23;100972.91;;;25.72;44.37
79589;BME280;69067;51.930;4.492;2023-07-30T09:00:53;100983.81;;;25.72;43.43
79589;BME280;69067;51.930;4.492;2023-07-30T09:03:23;100987.16;;;25.74;43.45
79589;BME280;69067;51.930;4.492;2023-07-30T09:05:51;101014.28;;;25.62;43.67
79589;BME280;69067;51.930;4.492;2023-07-30T09:08:17;100997.72;;;25.64;43.05
79589;BME280;69067;51.930;4.492;2023-07-30T09:10:43;100983.25;;;25.63;42.90
79589;BME280;69067;51.930;4.492;2023-07-30T09:13:09;100994.78;;;25.59;42.88
79589;BME280;69067;51.930;4.492;2023-07-30T09:15:37;101004.88;;;25.58;42.99
79589;BME280;69067;51.930;4.492;2023-07-30T09:18:04;100993.09;;;25.64;42.70
79589;BME280;69067;51.930;4.492;2023-07-30T09:20:41;100990.75;;;25.68;42.59
79589;BME280;69067;51.930;4.492;2023-07-30T09:23:09;101005.06;;;25.63;42.60
79589;BME280;69067;51.930;4.492;2023-07-30T09:25:37;101009.47;;;25.64;42.89
79589;BME280;69067;51.930;4.492;2023-07-30T09:28:05;100997.94;;;25.62;42.84
79589;BME280;69067;51.930;4.492;2023-07-30T09:30:31;100992.50;;;25.49;42.90
79589;BME280;69067;51.930;4.492;2023-07-30T09:32:59;101016.59;;;25.59;42.30
79589;BME280;69067;51.930;4.492;2023-07-30T09:35:25;101011.78;;;25.61;42.53
79589;BME280;69067;51.930;4.492;2023-07-30T09:37:59;101015.31;;;25.68;42.35
79589;BME280;69067;51.930;4.492;2023-07-30T09:40:36;101006.09;;;25.56;42.41
79589;BME280;69067;51.930;4.492;2023-07-30T09:43:03;101019.94;;;25.54;42.45
79589;BME280;69067;51.930;4.492;2023-07-30T09:45:34;101011.53;;;25.69;41.72
79589;BME280;69067;51.930;4.492;2023-07-30T09:48:05;101031.91;;;25.53;42.14
79589;BME280;69067;51.930;4.492;2023-07-30T09:50:33;101013.25;;;25.57;41.91
79589;BME280;69067;51.930;4.492;2023-07-30T09:53:01;101018.28;;;25.60;41.80
79589;BME280;69067;51.930;4.492;2023-07-30T09:55:27;101031.31;;;25.58;42.63
79589;BME280;69067;51.930;4.492;2023-07-30T09:57:53;101023.31;;;25.56;42.05
79589;BME280;69067;51.930;4.492;2023-07-30T10:00:19;101032.97;;;25.59;41.76
79589;BME280;69067;51.930;4.492;2023-07-30T10:02:46;101032.53;;;25.55;42.03
79589;BME280;69067;51.930;4.492;2023-07-30T10:05:18;101046.38;;;25.60;42.65
79589;BME280;69067;51.930;4.492;2023-07-30T10:07:53;101037.59;;;25.52;42.09
79589;BME280;69067;51.930;4.492;2023-07-30T10:10:24;101038.63;;;25.64;41.89
79589;BME280;69067;51.930;4.492;2023-07-30T10:12:52;101045.97;;;25.57;42.76
79589;BME280;69067;51.930;4.492;2023-07-30T10:15:21;101036.09;;;25.56;41.92
79589;BME280;69067;51.930;4.492;2023-07-30T10:17:50;101037.38;;;25.53;42.04
79589;BME280;69067;51.930;4.492;2023-07-30T10:20:28;101056.88;;;25.63;41.45
79589;BME280;69067;51.930;4.492;2023-07-30T10:22:57;101053.72;;;25.60;41.87
79589;BME280;69067;51.930;4.492;2023-07-30T10:30:58;101065.91;;;25.57;41.83
79589;BME280;69067;51.930;4.492;2023-07-30T10:33:49;101055.41;;;25.54;41.73
79589;BME280;69067;51.930;4.492;2023-07-30T10:36:30;101067.56;;;25.65;41.08
79589;BME280;69067;51.930;4.492;2023-07-30T10:38:57;101062.13;;;25.45;41.48
79589;BME280;69067;51.930;4.492;2023-07-30T10:41:23;101069.50;;;25.58;41.54
79589;BME280;69067;51.930;4.492;2023-07-30T10:43:50;101074.06;;;25.57;41.39
79589;BME280;69067;51.930;4.492;2023-07-30T10:46:18;101080.78;;;25.55;41.01
79589;BME280;69067;51.930;4.492;2023-07-30T10:48:46;101075.19;;;25.43;41.15
79589;BME280;69067;51.930;4.492;2023-07-30T10:51:18;101077.84;;;25.56;41.68
79589;BME280;69067;51.930;4.492;2023-07-30T10:53:47;101082.88;;;25.59;41.08
79589;BME280;69067;51.930;4.492;2023-07-30T10:56:17;101085.84;;;25.58;41.70
79589;BME280;69067;51.930;4.492;2023-07-30T10:58:52;101085.19;;;25.56;40.77
79589;BME280;69067;51.930;4.492;2023-07-30T11:01:19;101082.47;;;25.56;41.43
79589;BME280;69067;51.930;4.492;2023-07-30T11:03:48;101087.72;;;25.57;41.85
79589;BME280;69067;51.930;4.492;2023-07-30T11:06:25;101087.06;;;25.55;41.23
79589;BME280;69067;51.930;4.492;2023-07-30T11:08:52;101090.00;;;25.54;41.76
79589;BME280;69067;51.930;4.492;2023-07-30T11:11:18;101084.16;;;25.57;41.71
79589;BME280;69067;51.930;4.492;2023-07-30T11:13:46;101086.28;;;25.41;42.23
79589;BME280;69067;51.930;4.492;2023-07-30T11:16:14;101109.56;;;25.50;41.99
79589;BME280;69067;51.930;4.492;2023-07-30T11:18:42;101088.78;;;25.49;41.61
79589;BME280;69067;51.930;4.492;2023-07-30T11:21:10;101100.09;;;25.46;41.30
79589;BME280;69067;51.930;4.492;2023-07-30T11:23:42;101106.84;;;25.44;41.44
79589;BME280;69067;51.930;4.492;2023-07-30T11:26:16;101106.16;;;25.68;41.36
79589;BME280;69067;51.930;4.492;2023-07-30T11:28:44;101108.91;;;25.55;41.62
79589;BME280;69067;51.930;4.492;2023-07-30T11:31:17;101120.63;;;25.56;41.48
79589;BME280;69067;51.930;4.492;2023-07-30T11:33:47;101109.31;;;25.59;41.83
79589;BME280;69067;51.930;4.492;2023-07-30T11:36:19;101110.56;;;25.56;41.91
79589;BME280;69067;51.930;4.492;2023-07-30T11:38:47;101117.50;;;25.52;42.29
79589;BME280;69067;51.930;4.492;2023-07-30T11:41:14;101115.19;;;25.56;42.14
79589;BME280;69067;51.930;4.492;2023-07-30T11:43:44;101118.78;;;25.49;42.12
79589;BME280;69067;51.930;4.492;2023-07-30T11:46:17;101112.47;;;25.56;41.83
79589;BME280;69067;51.930;4.492;2023-07-30T11:48:50;101133.66;;;25.54;41.88
79589;BME280;69067;51.930;4.492;2023-07-30T11:51:24;101129.50;;;25.58;42.00
79589;BME280;69067;51.930;4.492;2023-07-30T11:53:58;101125.66;;;25.52;42.42
79589;BME280;69067;51.930;4.492;2023-07-30T11:56:31;101113.56;;;25.35;42.92
79589;BME280;69067;51.930;4.492;2023-07-30T11:58:59;101112.69;;;25.47;42.99
79589;BME280;69067;51.930;4.492;2023-07-30T12:01:29;101113.97;;;25.52;42.94
79589;BME280;69067;51.930;4.492;2023-07-30T12:03:57;101115.84;;;25.51;42.88
79589;BME280;69067;51.930;4.492;2023-07-30T12:06:38;101124.88;;;25.58;42.47
79589;BME280;69067;51.930;4.492;2023-07-30T12:09:16;101128.19;;;25.54;43.30
79589;BME280;69067;51.930;4.492;2023-07-30T12:11:59;101117.06;;;25.55;43.53
79589;BME280;69067;51.930;4.492;2023-07-30T12:14:28;101130.09;;;25.60;43.02
79589;BME280;69067;51.930;4.492;2023-07-30T12:16:56;101122.31;;;25.57;42.85
79589;BME280;69067;51.930;4.492;2023-07-30T12:19:22;101114.56;;;25.54;43.03
79589;BME280;69067;51.930;4.492;2023-07-30T12:21:48;101136.59;;;25.65;43.03
79589;BME280;69067;51.930;4.492;2023-07-30T12:24:14;101125.28;;;25.48;43.08
79589;BME280;69067;51.930;4.492;2023-07-30T12:26:40;101108.94;;;25.42;42.94
79589;BME280;69067;51.930;4.492;2023-07-30T12:29:06;101106.00;;;25.43;42.76
79589;BME280;69067;51.930;4.492;2023-07-30T12:31:32;101113.97;;;25.58;42.16
79589;BME280;69067;51.930;4.492;2023-07-30T12:33:58;101125.28;;;25.48;42.89
79589;BME280;69067;51.930;4.492;2023-07-30T12:36:23;101125.91;;;25.50;42.80
79589;BME280;69067;51.930;4.492;2023-07-30T12:38:49;101126.97;;;25.49;42.41
79589;BME280;69067;51.930;4.492;2023-07-30T12:41:18;101129.69;;;25.49;42.45
79589;BME280;69067;51.930;4.492;2023-07-30T12:43:52;101130.31;;;25.58;42.09
79589;BME280;69067;51.930;4.492;2023-07-30T12:46:19;101134.06;;;25.64;42.51
79589;BME280;69067;51.930;4.492;2023-07-30T12:48:45;101129.88;;;25.55;41.87
79589;BME280;69067;51.930;4.492;2023-07-30T12:51:11;101122.75;;;25.54;42.48
79589;BME280;69067;51.930;4.492;2023-07-30T12:53:37;101126.09;;;25.56;42.23
79589;BME280;69067;51.930;4.492;2023-07-30T12:56:02;101113.13;;;25.51;42.18